Time;durP1;ratioP1;P1;durP2;ratioP2;P2;SDS_P1;SDS_P2;PMS_P1;PMS_P2;Temp;Humidity;BMP_temperature;BMP_pressure;BME280_temperature;BME280_humidity;BME280_pressure;Samples;Min_cycle;Max_cycle;Signal;HPM_P1;HPM_P2
2022/04/29 00:01:53;;;;;;;10.65;9.07;;;8.20;1.00;;;8.05;64.73;102389.84;5054296;28;20272;-63
2022/04/29 00:04:23;;;;;;;13.15;5.88;;;8.20;1.00;;;7.96;64.74;102391.59;5054892;28;20228;-63
2022/04/29 00:06:52;;;;;;;8.13;5.25;;;8.20;1.00;;;8.14;64.28;102389.81;5054074;28;20195;-63
2022/04/29 00:09:21;;;;;;;6.90;5.72;;;8.20;1.00;;;8.11;64.16;102395.50;5055175;28;20275;-64
2022/04/29 00:11:50;;;;;;;7.80;5.93;;;8.20;1.00;;;8.05;64.89;102396.09;5055545;28;20211;-63
2022/04/29 00:14:19;;;;;;;10.57;5.55;;;8.20;1.00;;;8.03;64.51;102387.31;5056059;28;20207;-64
2022/04/29 00:16:48;;;;;;;7.03;5.82;;;8.20;85.70;;;8.03;64.33;102391.88;5056320;28;20260;-63
2022/04/29 00:19:19;;;;;;;6.35;4.80;;;;;;;8.01;64.53;102396.53;5056600;28;20188;-64
2022/04/29 00:21:48;;;;;;;5.95;4.93;;;;;;;7.98;64.49;102388.75;5056539;28;20600;-63
2022/04/29 00:24:17;;;;;;;6.22;5.32;;;8.00;99.90;;;8.00;64.72;102387.59;5056023;28;20709;-63
2022/04/29 00:26:46;;;;;;;7.50;6.20;;;8.10;22.00;;;7.95;64.62;102394.44;5056055;28;20200;-62
2022/04/29 00:29:14;;;;;;;7.70;6.20;;;8.10;1.20;;;7.97;64.71;102389.75;5054791;28;20189;-63
2022/04/29 00:31:43;;;;;;;8.93;5.80;;;8.10;1.00;;;7.83;65.17;102394.66;5056172;28;20268;-62
2022/04/29 00:34:12;;;;;;;8.50;7.00;;;8.00;3.90;;;7.79;65.69;102395.09;5054434;28;20290;-64
2022/04/29 00:36:42;;;;;;;7.00;5.55;;;8.00;1.00;;;7.78;65.68;102390.69;5054285;28;20185;-63
2022/04/29 00:39:11;;;;;;;7.10;5.30;;;7.90;1.00;;;7.63;66.13;102390.31;5054482;28;20281;-63
2022/04/29 00:41:40;;;;;;;9.40;5.57;;;7.90;1.00;;;7.51;66.83;102385.22;5052825;28;20379;-63
2022/04/29 00:44:11;;;;;;;20.05;15.13;;;7.80;1.20;;;7.50;67.11;102383.56;5053085;28;20213;-67
2022/04/29 00:46:42;;;;;;;7.85;6.13;;;7.70;1.00;;;7.36;67.39;102377.63;5054237;28;20223;-64
2022/04/29 00:49:14;;;;;;;10.50;7.00;;;7.60;20.70;;;7.56;67.39;102378.41;5054180;28;20242;-63
2022/04/29 00:51:49;;;;;;;9.75;6.30;;;7.70;23.90;;;7.50;66.61;102383.56;5053945;28;20433;-63
2022/04/29 00:54:26;;;;;;;7.65;5.90;;;7.70;1.00;;;7.61;65.89;102373.44;5053831;28;20224;-63
2022/04/29 00:56:58;;;;;;;13.38;6.22;;;7.70;17.10;;;7.58;66.34;102375.59;5053916;28;20177;-63
2022/04/29 00:59:34;;;;;;;9.80;7.00;;;7.80;1.00;;;7.65;66.35;102376.72;5052590;28;20193;-64
2022/04/29 01:02:08;;;;;;;13.18;7.45;;;7.80;14.60;;;7.64;66.83;102381.25;5053949;28;20208;-64
2022/04/29 01:04:45;;;;;;;7.55;5.82;;;7.80;1.00;;;7.51;67.18;102369.06;5052678;28;20241;-63
2022/04/29 01:07:15;;;;;;;6.25;5.40;;;7.70;26.60;;;7.42;67.49;102371.66;5052543;28;20189;-63
2022/04/29 01:09:44;;;;;;;8.20;5.45;;;7.70;1.00;;;7.28;67.74;102369.41;5052256;28;20224;-64
2022/04/29 01:12:13;;;;;;;6.50;5.45;;;7.60;3.20;;;7.15;67.19;102371.56;5051609;28;20279;-63
2022/04/29 01:14:44;;;;;;;8.60;6.13;;;7.50;8.60;;;7.08;67.40;102365.06;5053443;28;20216;-63
2022/04/29 01:17:12;;;;;;;10.07;6.47;;;7.40;2.70;;;7.02;67.70;102352.16;5053550;28;20212;-62
2022/04/29 01:19:41;;;;;;;7.75;5.13;;;7.30;12.40;;;6.98;67.83;102362.38;5052304;28;20184;-63
2022/04/29 01:22:12;;;;;;;9.88;6.60;;;7.30;18.80;;;7.05;68.30;102356.44;5052577;28;20204;-63
2022/04/29 01:24:41;;;;;;;9.20;6.10;;;7.30;49.00;;;7.38;67.30;102359.47;5052877;28;20193;-65
2022/04/29 01:27:11;;;;;;;10.38;7.15;;;7.40;27.60;;;7.60;66.90;102368.22;5052619;28;20185;-63
2022/04/29 01:29:43;;;;;;;9.20;7.25;;;7.60;61.40;;;7.71;65.75;102368.84;5052393;28;20198;-63
2022/04/29 01:32:12;;;;;;;14.07;9.20;;;7.70;5.30;;;7.59;65.91;102367.38;5052586;28;20215;-62
2022/04/29 01:34:44;;;;;;;17.05;9.52;;;7.70;54.10;;;7.58;65.95;102364.81;5052529;28;20219;-63
2022/04/29 01:37:14;;;;;;;16.92;9.52;;;7.70;58.40;;;7.60;65.64;102365.53;5052511;28;20200;-63
2022/04/29 01:39:43;;;;;;;10.98;8.52;;;;;;;7.43;65.82;102367.97;5052255;28;20199;-64
2022/04/29 01:42:11;;;;;;;11.30;6.88;;;7.60;99.90;;;7.35;65.90;102365.16;5053178;28;20169;-63
2022/04/29 01:44:40;;;;;;;9.30;6.75;;;7.60;99.90;;;7.37;66.00;102360.47;5053073;28;20188;-63
2022/04/29 01:47:09;;;;;;;7.05;5.32;;;7.50;99.90;;;7.21;66.29;102357.50;5052012;28;20612;-63
2022/04/29 01:49:52;;;;;;;7.90;5.70;;;6.10;99.90;;;7.07;66.92;102366.03;5051942;28;20283;-64
2022/04/29 01:52:22;;;;;;;12.13;5.25;;;7.30;97.60;;;7.09;66.80;102358.69;5052790;28;20211;-63
2022/04/29 01:54:51;;;;;;;6.53;5.93;;;7.30;90.00;;;7.09;66.95;102361.38;5051587;28;20299;-63
2022/04/29 01:57:19;;;;;;;6.97;5.55;;;7.30;88.40;;;7.02;66.92;102357.53;5051655;28;20296;-64
2022/04/29 01:59:49;;;;;;;11.30;6.10;;;7.20;93.40;;;6.95;67.02;102367.19;5051522;28;20619;-64
2022/04/29 02:02:30;;;;;;;6.68;5.28;;;7.20;99.90;;;6.84;67.56;102359.28;5051607;28;20247;-63
2022/04/29 02:04:59;;;;;;;7.78;5.65;;;7.10;99.90;;;6.81;67.96;102356.88;5053135;28;20196;-63
2022/04/29 02:07:29;;;;;;;7.75;6.65;;;7.00;99.90;;;6.75;67.87;102357.44;5051536;28;20191;-64
2022/04/29 02:09:58;;;;;;;6.57;6.07;;;7.00;99.90;;;6.80;67.73;102352.47;5052053;28;20681;-64
2022/04/29 02:12:27;;;;;;;5.18;4.50;;;;;;;6.87;67.79;102353.63;5052191;28;20180;-63
2022/04/29 02:14:58;;;;;;;8.10;4.97;;;7.00;99.90;;;6.75;67.89;102352.06;5053197;28;20280;-63
2022/04/29 02:17:35;;;;;;;7.10;5.75;;;7.00;99.90;;;6.64;68.11;102349.50;5068780;28;20189;-63
2022/04/29 02:20:05;;;;;;;5.30;4.25;;;6.90;99.90;;;6.63;68.25;102351.38;5052123;28;20254;-62
2022/04/29 02:22:35;;;;;;;10.18;5.35;;;6.80;99.90;;;6.60;68.66;102351.63;5051522;28;20227;-62
2022/04/29 02:25:05;;;;;;;6.82;5.10;;;6.80;99.90;;;6.53;68.42;102351.31;5052849;28;20601;-63
2022/04/29 02:27:35;;;;;;;8.82;6.07;;;6.80;99.90;;;6.62;68.62;102349.66;5052686;28;20193;-63
2022/04/29 02:30:06;;;;;;;5.78;5.20;;;6.80;99.90;;;6.63;68.98;102345.13;5051552;28;20271;-64
2022/04/29 02:32:35;;;;;;;6.18;4.80;;;6.80;99.90;;;6.46;69.31;102347.53;5051357;28;20232;-63
2022/04/29 02:35:06;;;;;;;9.10;7.60;;;6.70;99.90;;;6.43;69.61;102350.50;5051243;28;20220;-65
2022/04/29 02:37:36;;;;;;;8.82;7.40;;;6.70;99.90;;;6.46;69.75;102347.53;5051408;28;20523;-63
2022/04/29 02:40:07;;;;;;;7.03;5.88;;;6.70;99.90;;;6.50;69.78;102354.31;5051259;28;20193;-63
2022/04/29 02:45:32;;;;;;;12.27;6.55;;;;;;;6.55;69.55;102346.66;4990638;28;20234;-69
2022/04/29 02:48:01;;;;;;;8.45;6.57;;;;;;;6.48;69.75;102337.47;4991905;28;20582;-68
2022/04/29 02:50:30;;;;;;;7.82;5.57;;;6.70;84.20;;;6.42;70.08;102345.25;4992092;28;20217;-68
2022/04/29 02:53:05;;;;;;;9.52;6.18;;;6.60;94.70;;;6.61;69.96;102347.09;4994340;28;20183;-68
2022/04/29 02:55:34;;;;;;;6.25;5.65;;;6.70;98.20;;;6.61;70.38;102344.41;5027923;28;20715;-68
2022/04/29 02:58:08;;;;;;;8.77;6.22;;;6.70;99.90;;;6.61;70.39;102347.94;5013345;28;20206;-67
2022/04/29 03:00:40;;;;;;;10.18;5.07;;;6.70;99.90;;;6.54;70.57;102344.13;5029264;28;20190;-67
2022/04/29 03:03:09;;;;;;;5.85;5.25;;;6.70;99.90;;;6.36;70.55;102337.72;5028546;28;20572;-67
2022/04/29 03:05:40;;;;;;;6.63;6.00;;;6.70;99.70;;;6.50;70.30;102340.88;5012598;28;20667;-67
2022/04/29 03:08:12;;;;;;;9.13;5.80;;;6.70;99.90;;;6.42;70.81;102342.56;5011622;28;20633;-69
2022/04/29 03:10:42;;;;;;;7.03;4.70;;;6.60;99.90;;;6.44;70.88;102336.03;5012934;28;20174;-68
2022/04/29 03:13:11;;;;;;;11.15;6.68;;;6.60;99.90;;;6.35;71.13;102336.03;5011532;28;20218;-67
2022/04/29 03:15:56;;;;;;;7.57;6.20;;;6.60;99.90;;;6.26;71.85;102337.72;5027779;28;20190;-68
2022/04/29 03:18:26;;;;;;;6.85;5.18;;;6.50;99.90;;;6.35;71.92;102331.50;5027898;28;20229;-68
2022/04/29 03:20:57;;;;;;;9.00;6.13;;;6.50;99.90;;;6.44;71.13;102336.03;5027772;28;20197;-67
2022/04/29 03:23:28;;;;;;;8.35;5.43;;;6.60;99.90;;;6.20;71.35;102338.25;5011298;28;20213;-68
2022/04/29 03:25:56;;;;;;;6.75;6.00;;;6.50;99.90;;;6.31;71.88;102335.47;5012979;28;20209;-68
2022/04/29 03:28:27;;;;;;;9.15;5.65;;;6.50;99.90;;;6.38;71.68;102341.16;5012483;28;20197;-69
2022/04/29 03:30:58;;;;;;;7.43;6.38;;;6.50;99.90;;;6.46;71.24;102334.06;5028169;28;20240;-68
2022/04/29 03:33:33;;;;;;;7.75;5.10;;;6.50;99.90;;;6.23;71.30;102337.16;5027665;28;20249;-68
2022/04/29 03:36:04;;;;;;;6.43;5.07;;;6.40;99.90;;;6.26;72.21;102326.97;5029853;28;20206;-68
2022/04/29 03:38:40;;;;;;;8.30;5.43;;;6.40;99.90;;;6.16;71.82;102338.69;5032261;28;20194;-68
2022/04/29 03:41:12;;;;;;;9.55;5.78;;;;;;;6.27;71.77;102333.19;5016547;28;20290;-68
2022/04/29 03:43:40;;;;;;;7.47;6.68;;;6.70;99.90;;;6.28;72.10;102330.38;5014772;28;20226;-68
2022/04/29 03:46:15;;;;;;;9.27;5.88;;;6.40;99.90;;;6.33;71.36;102338.88;5015327;28;20178;-67
2022/04/29 03:51:51;;;;;;;8.93;7.55;;;;;;;6.43;70.30;102331.69;5031637;28;20186;-68
2022/04/29 03:54:22;;;;;;;7.05;5.93;;;6.60;99.90;;;6.56;69.57;102331.38;5014733;28;20652;-68
2022/04/29 03:57:00;;;;;;;9.90;7.10;;;6.50;99.90;;;6.68;69.04;102332.09;5015413;28;20182;-68
2022/04/29 03:59:30;;;;;;;15.75;8.88;;;6.60;99.90;;;6.82;68.82;102328.97;5014475;28;20213;-67
2022/04/29 04:02:00;;;;;;;8.20;5.55;;;6.70;99.90;;;7.15;67.32;102325.81;5031137;28;20198;-69
2022/04/29 04:04:29;;;;;;;9.80;6.10;;;6.90;99.90;;;7.28;66.65;102339.81;5015916;28;20565;-67
2022/04/29 04:07:01;;;;;;;8.80;6.18;;;7.00;99.90;;;7.63;65.70;102331.03;5031174;28;20182;-67
2022/04/29 04:09:57;;;;;;;6.90;4.95;;;7.20;99.90;;;8.61;62.68;102335.72;4991863;28;20293;-67
2022/04/29 04:12:27;;;;;;;12.43;6.43;;;7.60;99.90;;;9.41;60.57;102340.06;5029985;28;20266;-68
2022/04/29 04:15:16;;;;;;;11.00;5.28;;;8.00;99.90;;;10.29;57.65;102331.50;5015020;28;20275;-67
2022/04/29 04:17:47;;;;;;;6.85;5.40;;;8.40;99.90;;;11.19;55.25;102324.25;5013497;28;20198;-67
2022/04/29 04:20:17;;;;;;;6.45;5.47;;;9.00;99.90;;;11.86;53.04;102335.66;5013377;28;20194;-68
2022/04/29 04:23:03;;;;;;;13.75;5.82;;;;;;;12.41;51.75;102330.09;5013354;28;20190;-68
2022/04/29 04:25:33;;;;;;;6.85;5.80;;;9.90;99.90;;;12.99;nan;102341.19;5013332;28;20556;-67
2022/04/29 04:28:04;;;;;;;9.15;5.35;;;10.50;99.90;;;13.26;48.88;102328.94;5029721;28;20666;-67
2022/04/29 04:30:53;;;;;;;10.10;4.32;;;10.70;99.90;;;12.94;50.12;102340.06;5013053;28;20688;-68
2022/04/29 04:33:27;;;;;;;8.07;5.32;;;10.80;32.40;;;12.70;50.75;102345.69;5029212;28;20241;-67
2022/04/29 04:35:55;;;;;;;6.03;4.80;;;10.70;23.20;;;13.31;49.69;102337.34;5013034;28;20252;-68
2022/04/29 04:38:26;;;;;;;5.70;4.60;;;10.80;19.50;;;14.08;47.69;102343.28;5029508;28;20437;-68
2022/04/29 04:41:08;;;;;;;13.13;6.00;;;11.10;20.30;;;14.96;45.61;102339.44;5029390;28;20457;-68
2022/04/29 04:43:40;;;;;;;7.47;5.17;;;11.40;14.50;;;14.89;44.87;102331.19;5012681;28;20530;-68
2022/04/29 04:46:12;;;;;;;6.13;5.10;;;11.80;14.70;;;14.53;45.16;102335.84;5029300;28;20513;-69
2022/04/29 04:48:41;;;;;;;5.93;5.17;;;12.00;13.90;;;14.61;45.28;102339.31;5014500;28;20413;-68
2022/04/29 04:51:29;;;;;;;7.30;5.70;;;12.30;12.80;;;15.54;43.67;102346.44;5013786;28;20439;-68
2022/04/29 04:54:09;;;;;;;13.53;5.50;;;12.40;13.30;;;16.02;42.29;102353.63;5029411;28;20493;-68
2022/04/29 04:56:41;;;;;;;9.00;5.70;;;12.40;15.20;;;15.18;43.08;102343.81;5028825;28;20504;-70
2022/04/29 04:59:10;;;;;;;7.50;5.20;;;12.80;16.20;;;14.64;44.55;102349.81;5012395;28;20464;-69
2022/04/29 05:01:39;;;;;;;10.03;7.37;;;12.70;21.80;;;14.88;44.69;102350.47;5028343;28;20448;-69
2022/04/29 05:04:17;;;;;;;8.37;7.50;;;12.70;99.90;;;15.70;43.12;102346.09;5013678;28;20707;-68
2022/04/29 05:07:04;;;;;;;10.10;6.23;;;13.10;99.90;;;16.19;41.94;102354.13;5013243;28;20912;-68
2022/04/29 05:09:33;;;;;;;13.47;7.20;;;13.10;99.90;;;16.60;41.10;102365.03;5012527;28;20491;-68
2022/04/29 05:12:04;;;;;;;11.07;7.90;;;13.50;45.40;;;16.38;40.82;102366.16;5013399;28;20421;-68
2022/04/29 05:14:58;;;;;;;12.73;6.73;;;13.40;61.50;;;16.68;40.07;102356.63;5014758;28;20627;-67
2022/04/29 05:17:28;;;;;;;7.87;6.70;;;;;;;15.78;41.44;102359.59;5028712;28;20415;-68
2022/04/29 05:20:17;;;;;;;10.77;7.33;;;;;;;14.03;45.00;102364.78;5013580;28;20419;-67
2022/04/29 05:22:47;;;;;;;12.53;6.80;;;13.00;99.90;;;13.01;47.47;102365.50;5011982;28;20432;-68
2022/04/29 05:25:17;;;;;;;8.77;6.00;;;;;;;12.69;48.05;102363.00;5028304;28;20465;-67
2022/04/29 05:28:07;;;;;;;11.93;8.30;;;;;;;12.35;49.20;102369.66;5013594;28;20462;-67
2022/04/29 05:30:54;;;;;;;10.20;6.70;;;;;;;12.04;50.36;102366.09;5013190;28;20471;-68
2022/04/29 05:33:24;;;;;;;9.97;7.13;;;11.60;99.90;;;12.01;50.87;102374.56;5013304;28;20785;-69
2022/04/29 05:36:12;;;;;;;10.20;7.57;;;;;;;11.83;51.28;102368.53;5012660;28;20507;-68
2022/04/29 05:44:36;;;;;;;11.80;6.43;;;;;;;12.23;50.59;102360.25;5011904;28;20463;-68
2022/04/29 05:47:06;;;;;;;11.30;6.83;;;;;;;12.12;50.99;102355.19;5012826;28;20536;-68
2022/04/29 05:49:36;;;;;;;11.90;6.80;;;;;;;12.24;50.70;102356.50;5011580;28;20513;-69
2022/04/29 05:52:07;;;;;;;11.30;7.07;;;;;;;12.28;51.10;102363.28;5011010;28;20436;-67
2022/04/29 05:54:38;;;;;;;9.33;6.50;;;;;;;12.46;50.22;102358.41;5010907;28;20511;-69
2022/04/29 05:57:13;;;;;;;9.63;6.47;;;;;;;12.45;49.56;102359.44;5010882;28;20508;-68
2022/04/29 05:59:43;;;;;;;5.90;4.63;;;;;;;12.54;48.79;102358.34;5011185;28;20441;-68
2022/04/29 06:02:43;;;;;;;6.43;5.00;;;;;;;12.57;48.60;102363.44;5019628;28;20425;-68
2022/04/29 06:05:13;;;;;;;7.93;4.73;;;;;;;12.69;48.78;102352.97;5020028;28;20432;-67
2022/04/29 06:07:45;;;;;;;5.30;4.80;;;;;;;12.89;48.37;102354.19;5018570;28;20439;-68
2022/04/29 06:10:22;;;;;;;8.97;5.17;;;;;;;13.10;47.61;102353.50;5012838;28;20863;-69
2022/04/29 06:12:52;;;;;;;6.27;5.67;;;;;;;13.29;47.84;102358.47;5012550;28;20626;-67
2022/04/29 06:15:34;;;;;;;5.60;3.80;;;;;;;13.40;45.75;102360.75;5010968;28;20622;-68
2022/04/29 06:18:09;;;;;;;3.93;3.53;;;;;;;13.41;45.07;102354.25;5014573;28;20432;-68
2022/04/29 06:20:59;;;;;;;6.80;4.60;;;;;;;13.68;44.81;102357.38;5001496;28;20433;-66
2022/04/29 06:23:49;;;;;;;4.30;3.60;;;;;;;13.97;43.73;102360.09;5011492;28;20453;-67
2022/04/29 06:26:19;;;;;;;6.40;4.07;;;;;;;14.07;43.93;102357.94;5011421;28;20443;-68
2022/04/29 06:28:48;;;;;;;10.07;3.93;;;;;;;13.89;44.38;102360.22;5011502;28;20992;-68
2022/04/29 06:31:18;;;;;;;7.43;4.90;;;;;;;14.26;43.26;102360.06;5010678;28;20469;-67
2022/04/29 06:34:06;;;;;;;3.90;3.20;;;;;;;14.32;42.59;102367.47;5012345;28;20491;-68
2022/04/29 06:36:36;;;;;;;4.30;3.30;;;;;;;14.41;42.17;102357.31;5010986;28;20465;-68
2022/04/29 06:39:08;;;;;;;6.60;4.00;;;;;;;14.38;42.27;102354.97;5010912;28;20451;-68
2022/04/29 06:42:03;;;;;;;6.60;3.63;;;;;;;14.33;42.20;102363.69;5003774;28;20950;-67
2022/04/29 06:44:51;;;;;;;3.90;2.43;;;;;;;14.37;41.90;102366.06;5012242;28;20537;-67
2022/04/29 06:47:40;;;;;;;3.00;1.87;;;;;;;14.60;40.02;102372.19;5012656;28;20401;-68
2022/04/29 06:50:28;;;;;;;3.37;2.30;;;;;;;14.33;40.25;102373.72;5013476;28;20502;-67
2022/04/29 06:53:29;;;;;;;4.80;2.60;;;;;;;14.61;38.96;102371.19;4989466;28;20921;-69
2022/04/29 06:56:00;;;;;;;5.40;2.40;;;;;;;14.78;38.23;102370.72;5010659;28;20469;-68
2022/04/29 06:58:30;;;;;;;4.13;2.33;;;;;;;15.05;38.95;102369.09;5010425;28;20885;-67
2022/04/29 07:00:59;;;;;;;3.33;2.40;;;14.70;99.90;;;15.34;38.48;102379.00;5010252;28;20433;-68
2022/04/29 07:03:29;;;;;;;3.47;2.73;;;14.80;44.90;;;15.56;37.31;102375.19;5026460;28;20436;-68
2022/04/29 07:06:00;;;;;;;4.47;2.53;;;15.20;54.00;;;15.50;37.73;102372.38;5010488;28;20421;-67
2022/04/29 07:08:30;;;;;;;3.43;2.40;;;15.20;48.00;;;15.54;37.35;102369.09;5010515;28;20421;-69
2022/04/29 07:11:05;;;;;;;7.27;3.53;;;15.20;55.10;;;15.62;37.65;102368.94;5013815;28;20407;-68
2022/04/29 07:13:52;;;;;;;5.47;3.10;;;15.20;49.90;;;15.60;37.50;102375.63;5015619;28;20448;-67
2022/04/29 07:16:21;;;;;;;5.00;3.00;;;15.20;55.70;;;15.71;37.36;102375.09;5015225;28;20511;-67
2022/04/29 07:19:14;;;;;;;4.50;3.40;;;15.40;57.10;;;15.65;37.17;102367.69;5014000;28;20441;-67
2022/04/29 07:21:43;;;;;;;3.43;2.47;;;15.30;57.80;;;15.64;37.49;102372.31;5013680;28;20415;-67
2022/04/29 07:24:12;;;;;;;3.40;3.10;;;15.30;59.80;;;15.89;37.49;102361.75;5030053;28;20448;-67
2022/04/29 07:26:42;;;;;;;5.37;3.00;;;15.40;63.40;;;16.18;35.75;102368.81;5030572;28;20407;-67
2022/04/29 07:29:14;;;;;;;3.93;2.80;;;15.80;72.20;;;16.12;35.20;102366.91;5014109;28;20420;-67
2022/04/29 07:31:49;;;;;;;3.00;1.87;;;16.00;93.00;;;16.01;35.43;102360.16;5030661;28;20530;-69
2022/04/29 07:34:23;;;;;;;6.00;2.07;;;15.90;91.80;;;15.95;34.98;102366.41;5015815;28;20452;-66
2022/04/29 07:42:55;;;;;;;5.23;2.10;;;15.60;82.10;;;16.61;34.18;102363.97;5029651;28;20452;-68
2022/04/29 07:45:24;;;;;;;2.17;1.83;;;16.00;98.10;;;16.82;33.92;102358.34;5013588;28;20445;-68
2022/04/29 07:48:13;;;;;;;4.57;2.60;;;16.20;99.90;;;16.84;33.60;102366.34;5014998;28;20483;-68
2022/04/29 07:50:43;;;;;;;2.80;2.10;;;16.30;99.90;;;16.68;33.27;102362.09;5030061;28;20437;-67
2022/04/29 07:53:13;;;;;;;3.23;1.70;;;16.40;98.30;;;16.77;33.18;102358.13;5029816;28;20623;-68
2022/04/29 07:55:42;;;;;;;2.73;1.77;;;16.50;99.90;;;16.46;33.51;102358.63;5029459;28;20437;-68
2022/04/29 07:58:12;;;;;;;2.53;1.93;;;16.50;99.90;;;16.00;34.33;102346.69;5030294;28;20461;-68
2022/04/29 08:00:43;;;;;;;5.90;2.33;;;16.10;99.90;;;16.08;34.31;102344.63;5029453;28;20544;-68
2022/04/29 08:03:33;;;;;;;3.30;1.80;;;16.10;99.90;;;15.93;34.68;102346.66;5029155;28;20464;-68
2022/04/29 08:06:05;;;;;;;5.00;1.97;;;15.80;99.90;;;16.00;34.53;102347.53;5029425;28;20524;-67
2022/04/29 08:08:35;;;;;;;4.40;2.10;;;15.80;99.90;;;16.26;34.52;102340.50;5013571;28;20659;-68
2022/04/29 08:11:04;;;;;;;1.87;1.50;;;;;;;16.51;34.50;102349.81;5012913;28;20530;-69
2022/04/29 08:13:44;;;;;;;2.70;2.20;;;;;;;16.78;33.94;102343.41;5012472;28;21005;-68
2022/04/29 08:16:59;;;;;;;2.93;2.00;;;;;;;16.84;33.98;102337.09;4997941;28;20568;-67
2022/04/29 08:19:36;;;;;;;3.90;2.10;;;;;;;16.94;33.73;102348.44;5012836;28;20491;-67
2022/04/29 08:22:21;;;;;;;3.40;1.97;;;;;;;17.00;34.06;102351.41;5012180;28;21112;-67
2022/04/29 08:24:51;;;;;;;3.10;1.80;;;;;;;17.20;34.03;102350.34;5014111;28;20992;-68
2022/04/29 08:27:21;;;;;;;2.77;1.97;;;;;;;16.78;33.80;102346.13;5014041;28;20861;-68
2022/04/29 08:29:59;;;;;;;5.60;2.43;;;;;;;16.79;33.86;102345.09;5014086;28;20544;-68
2022/04/29 08:32:37;;;;;;;3.93;2.30;;;;;;;17.10;34.14;102354.56;5012050;28;20770;-67
2022/04/29 08:35:09;;;;;;;7.60;2.63;;;;;;;17.44;32.97;102350.75;5012392;28;20435;-68
2022/04/29 08:37:40;;;;;;;3.87;2.30;;;;;;;17.17;33.39;102352.69;5013890;28;20458;-68
2022/04/29 08:40:11;;;;;;;5.93;2.50;;;;;;;17.22;33.43;102353.75;5012610;28;20441;-68
2022/04/29 08:42:41;;;;;;;4.80;2.30;;;;;;;17.29;33.72;102346.34;5011967;28;20445;-68
2022/04/29 08:45:12;;;;;;;7.30;3.20;;;;;;;17.50;33.59;102350.75;5025469;23;21045;-72
2022/04/29 08:48:00;;;;;;;5.57;2.20;;;;;;;17.88;32.97;102348.16;5012739;28;20408;-71
2022/04/29 08:50:37;;;;;;;3.77;2.50;;;;;;;17.60;32.90;102339.41;5003448;28;20467;-71
2022/04/29 08:53:07;;;;;;;8.10;3.40;;;;;;;17.29;33.95;102337.31;4993088;28;20427;-71
2022/04/29 08:58:39;;;;;;;11.23;3.57;;;;;;;17.93;33.12;102334.69;5007691;28;20814;-72
2022/04/29 09:01:13;;;;;;;3.83;2.90;;;;;;;17.75;33.44;102338.09;5007713;28;20437;-72
2022/04/29 09:03:43;;;;;;;3.53;2.70;;;;;;;17.57;33.72;102335.16;4991173;28;20489;-72
2022/04/29 09:06:17;;;;;;;5.63;3.07;;;;;;;17.40;34.22;102339.41;4992752;28;20927;-72
2022/04/29 09:08:51;;;;;;;5.87;4.27;;;;;;;17.52;34.19;102332.25;4992595;28;20457;-71
2022/04/29 09:11:23;;;;;;;4.37;3.90;;;;;;;17.60;34.16;102336.66;4992411;28;20496;-71
2022/04/29 09:13:53;;;;;;;5.63;2.90;;;;;;;17.92;34.36;102338.47;4992566;28;20417;-71
2022/04/29 09:16:28;;;;;;;3.50;2.63;;;;;;;18.57;33.49;102320.91;4991394;28;21101;-72
2022/04/29 09:18:57;;;;;;;5.57;2.87;;;;;;;18.64;33.10;102329.91;4992538;28;20431;-71
2022/04/29 09:21:30;;;;;;;8.40;3.87;;;;;;;18.78;33.27;102332.59;5007077;28;20508;-71
2022/04/29 09:24:06;;;;;;;3.43;2.20;;;;;;;19.22;32.80;102326.91;4992712;28;20433;-69
2022/04/29 09:26:39;;;;;;;3.73;2.80;;;;;;;19.41;32.83;102334.13;4993015;28;20411;-72
2022/04/29 09:29:28;;;;;;;4.90;2.73;;;;;;;18.86;32.53;102324.06;4992915;28;20590;-73
2022/04/29 09:32:16;;;;;;;4.37;3.97;;;;;;;18.08;33.61;102326.19;4993737;28;20502;-71
2022/04/29 09:34:58;;;;;;;3.90;3.07;;;;;;;18.24;33.62;102317.47;4993200;28;20931;-71
2022/04/29 09:37:30;;;;;;;3.73;3.40;;;;;;;18.38;34.16;102321.84;4992031;28;20432;-71
2022/04/29 09:40:04;;;;;;;5.87;3.80;;;;;;;18.28;34.04;102323.34;5007015;28;20877;-71
2022/04/29 09:42:43;;;;;;;4.30;3.07;;;;;;;18.40;33.36;102314.22;4993622;28;20447;-72
2022/04/29 09:45:22;;;;;;;4.50;3.67;;;;;;;18.24;33.69;102317.47;4992023;28;20947;-73
2022/04/29 09:47:55;;;;;;;4.70;3.80;;;;;;;18.10;34.48;102315.88;4992064;28;20414;-72
2022/04/29 09:50:44;;;;;;;4.27;3.87;;;;;;;17.59;34.57;102322.13;4991962;28;20450;-71
2022/04/29 09:53:21;;;;;;;6.13;3.60;;;;;;;17.87;34.87;102316.34;4992199;28;20406;-72
2022/04/29 09:56:08;;;;;;;10.03;7.90;;;;;;;18.01;34.22;102303.47;4991303;28;20517;-71
2022/04/29 09:58:37;;;;;;;6.77;4.10;;;;;;;18.35;33.46;102294.84;4991703;28;20450;-72
2022/04/29 10:01:07;;;;;;;6.03;4.20;;;;;;;18.23;34.26;102296.63;4992045;28;20420;-73
2022/04/29 10:03:36;;;;;;;6.93;2.90;;;;;;;17.45;34.11;102301.28;4990497;28;20465;-72
2022/04/29 10:06:09;;;;;;;4.27;3.00;;;;;;;17.52;34.54;102299.41;5007274;28;20481;-74
2022/04/29 10:08:40;;;;;;;4.90;2.87;;;;;;;17.81;33.92;102301.63;4992127;28;20805;-72
2022/04/29 10:11:11;;;;;;;5.27;3.93;;;;;;;17.60;34.04;102298.34;4992256;28;20442;-71
2022/04/29 10:13:42;;;;;;;5.00;3.97;;;;;;;17.52;33.99;102296.66;5006955;28;20463;-71
2022/04/29 10:16:20;;;;;;;3.43;3.13;;;;;;;17.63;33.74;102290.53;5007992;28;20441;-71
2022/04/29 10:22:14;;;;;;;3.70;3.20;;;;;;;18.73;32.59;102294.00;4991473;28;20425;-72
2022/04/29 10:24:44;;;;;;;4.83;3.13;;;;;;;18.50;31.84;102281.69;5006869;28;20447;-72
2022/04/29 10:27:15;;;;;;;7.27;3.70;;;;;;;18.15;32.50;102288.66;4990635;28;20408;-71
2022/04/29 10:29:45;;;;;;;5.10;4.00;;;18.10;99.80;;;18.34;32.32;102286.88;5006845;28;20442;-71
2022/04/29 10:32:14;;;;;;;5.23;3.77;;;18.10;42.40;;;18.48;32.05;102292.03;5006281;28;20454;-71
2022/04/29 10:34:42;;;;;;;4.40;2.80;;;18.20;16.30;;;18.54;32.14;102291.16;4991227;28;20966;-71
2022/04/29 10:37:14;;;;;;;3.83;3.53;;;18.20;26.50;;;18.03;32.99;102280.28;4991458;28;20410;-71
2022/04/29 10:40:11;;;;;;;5.33;3.00;;;18.10;37.40;;;17.87;33.47;102282.66;4990391;28;20434;-71
2022/04/29 10:43:07;;;;;;;7.60;3.77;;;17.80;77.00;;;17.95;33.17;102279.69;4990539;28;20525;-71
2022/04/29 10:45:52;;;;;;;5.10;3.40;;;17.80;53.20;;;18.21;32.86;102276.81;4992254;28;20449;-70
2022/04/29 10:48:33;;;;;;;4.67;3.40;;;18.00;58.30;;;18.89;32.87;102274.25;5010302;28;20513;-72
2022/04/29 10:51:22;;;;;;;4.93;3.23;;;18.30;64.30;;;18.84;31.91;102271.34;4995463;28;20779;-70
2022/04/29 10:54:09;;;;;;;10.07;3.60;;;18.40;68.60;;;18.62;31.85;102265.41;4993843;28;20445;-71
2022/04/29 10:57:14;;;;;;;9.60;4.57;;;18.50;13.00;;;18.96;31.40;102261.31;4993466;28;20448;-72
2022/04/29 11:00:00;;;;;;;5.73;3.60;;;18.60;6.20;;;19.20;31.89;102276.09;4994718;28;20484;-72
2022/04/29 11:02:31;;;;;;;4.63;3.53;;;18.80;15.40;;;18.80;31.54;102261.88;5010099;28;20983;-69
2022/04/29 11:05:02;;;;;;;8.20;4.13;;;18.70;38.30;;;18.57;31.73;102266.06;4995059;28;20403;-71
2022/04/29 11:07:44;;;;;;;6.63;3.70;;;18.60;55.80;;;18.58;32.14;102256.78;5009667;28;20758;-70
2022/04/29 11:10:19;;;;;;;3.50;3.13;;;18.30;59.80;;;18.63;31.66;102254.22;5009063;28;20831;-72
2022/04/29 11:13:03;;;;;;;5.20;3.87;;;18.50;70.90;;;17.91;32.41;102253.78;4993079;28;20469;-71
2022/04/29 11:15:52;;;;;;;5.10;3.20;;;17.90;56.70;;;18.32;32.54;102247.88;4994412;28;20634;-73
2022/04/29 11:19:21;;;;;;;4.73;3.33;;;18.00;59.30;;;18.99;32.20;102248.00;4981796;28;20459;-72
2022/04/29 11:24:50;;;;;;;5.30;3.73;;;18.80;43.50;;;19.63;31.39;102235.72;4993583;28;20460;-71
2022/04/29 11:27:39;;;;;;;3.77;3.10;;;19.10;46.10;;;19.75;30.34;102236.63;4984967;28;20426;-71
2022/04/29 11:30:14;;;;;;;4.27;3.37;;;19.20;52.10;;;19.95;30.55;102236.34;5010130;28;20802;-72
2022/04/29 11:32:46;;;;;;;4.40;3.70;;;19.40;54.70;;;19.80;30.62;102233.22;4995285;28;20492;-72
2022/04/29 11:35:15;;;;;;;4.50;3.63;;;19.50;43.60;;;19.83;31.23;102229.97;5010373;28;20433;-69
2022/04/29 11:37:46;;;;;;;4.10;3.70;;;19.40;40.10;;;20.18;30.52;102224.66;5009406;28;20778;-71
2022/04/29 11:40:15;;;;;;;8.63;3.97;;;19.70;40.90;;;20.15;29.54;102220.44;4994462;28;20429;-70
2022/04/29 11:42:51;;;;;;;4.27;3.87;;;19.80;43.30;;;19.53;29.76;102224.44;5009864;28;20470;-71